createdAt,value
2022-11-06T00:01:43.556Z,9.04
2022-11-06T00:04:37.059Z,9.14
2022-11-06T00:07:21.412Z,9.17
2022-11-06T00:10:01.048Z,9.22
2022-11-06T00:12:50.992Z,9.19
2022-11-06T00:15:39.687Z,9.22
2022-11-06T00:18:31.610Z,9.21
2022-11-06T00:21:28.065Z,9.22
2022-11-06T00:24:09.553Z,9.16
2022-11-06T00:27:10.653Z,9.10
2022-11-06T00:29:54.935Z,9.29
2022-11-06T00:32:35.487Z,9.24
2022-11-06T00:35:16.240Z,9.17
2022-11-06T00:38:02.467Z,9.01
2022-11-06T00:41:00.787Z,9.01
2022-11-06T00:43:56.827Z,9.00
2022-11-06T00:46:39.381Z,8.99
2022-11-06T00:49:16.920Z,9.01
2022-11-06T00:52:00.249Z,8.97
2022-11-06T00:54:45.818Z,8.97
2022-11-06T00:57:32.009Z,8.94
2022-11-06T01:00:20.826Z,8.99
2022-11-06T01:03:08.010Z,8.97
2022-11-06T01:05:53.607Z,9.03
2022-11-06T01:08:40.573Z,9.09
2022-11-06T01:12:06.888Z,9.01
2022-11-06T01:14:48.893Z,8.98
2022-11-06T01:17:32.835Z,9.09
2022-11-06T01:20:24.040Z,8.98
2022-11-06T01:23:11.431Z,9.10
2022-11-06T01:25:59.088Z,9.23
2022-11-06T01:28:49.144Z,9.17
2022-11-06T01:31:29.588Z,9.13
2022-11-06T01:34:10.917Z,9.04
2022-11-06T01:37:01.076Z,9.06
2022-11-06T01:39:49.844Z,8.93
2022-11-06T01:42:45.228Z,8.97
2022-11-06T01:45:32.526Z,8.98
2022-11-06T01:48:11.644Z,8.95
2022-11-06T01:51:00.944Z,8.98
2022-11-06T01:53:49.900Z,9.03
2022-11-06T01:56:39.452Z,9.05
2022-11-06T01:59:21.289Z,8.91
2022-11-06T02:02:05.185Z,8.91
2022-11-06T02:04:57.445Z,9.02
2022-11-06T02:07:44.069Z,9.08
2022-11-06T02:10:25.571Z,8.99
2022-11-06T02:13:15.467Z,9.06
2022-11-06T02:16:27.596Z,9.16
2022-11-06T02:19:21.345Z,9.16
2022-11-06T02:22:47.087Z,9.21
2022-11-06T02:25:57.495Z,9.04
2022-11-06T02:28:42.030Z,9.13
2022-11-06T02:31:27.355Z,9.19
2022-11-06T02:34:15.303Z,9.05
2022-11-06T02:37:15.671Z,9.09
2022-11-06T02:40:03.757Z,9.09
2022-11-06T02:42:52.090Z,9.07
2022-11-06T02:45:41.625Z,9.04
2022-11-06T02:48:31.926Z,9.11
2022-11-06T02:51:21.554Z,9.12
2022-11-06T02:54:04.480Z,9.17
2022-11-06T02:56:42.792Z,9.18
2022-11-06T02:59:27.542Z,9.24
2022-11-06T03:02:25.149Z,9.29
2022-11-06T03:05:14.938Z,9.28
2022-11-06T03:08:08.872Z,9.22
2022-11-06T03:11:19.610Z,9.20
2022-11-06T03:14:04.496Z,9.20
2022-11-06T03:17:07.078Z,9.27
2022-11-06T03:20:04.921Z,9.23
2022-11-06T03:23:04.226Z,9.17
2022-11-06T03:26:00.241Z,9.17
2022-11-06T03:28:47.762Z,9.19
2022-11-06T03:31:42.513Z,9.19
2022-11-06T03:34:27.478Z,9.31
2022-11-06T03:37:34.349Z,9.24
2022-11-06T03:40:21.634Z,9.17
2022-11-06T03:43:05.379Z,9.23
2022-11-06T03:45:46.781Z,9.22
2022-11-06T03:48:39.822Z,9.34
2022-11-06T03:51:32.848Z,9.34
2022-11-06T03:54:38.491Z,9.35
2022-11-06T03:57:24.038Z,9.39
2022-11-06T04:00:06.056Z,9.46
2022-11-06T04:03:08.532Z,9.42
2022-11-06T04:05:54.086Z,9.41
2022-11-06T04:08:51.438Z,9.49
2022-11-06T04:11:48.843Z,9.34
2022-11-06T04:14:35.080Z,9.38
2022-11-06T04:17:17.772Z,9.17
2022-11-06T04:20:11.058Z,9.11
2022-11-06T04:23:06.589Z,9.26
2022-11-06T04:26:40.107Z,9.18
2022-11-06T04:29:54.119Z,9.16
2022-11-06T04:33:16.892Z,9.22
2022-11-06T04:36:26.804Z,9.21
2022-11-06T04:39:28.807Z,9.28
2022-11-06T04:42:32.870Z,9.17
2022-11-06T04:45:21.613Z,9.20
2022-11-06T04:48:12.182Z,9.00
2022-11-06T04:50:57.444Z,9.09
2022-11-06T04:53:39.604Z,9.13
2022-11-06T04:56:25.816Z,9.00
2022-11-06T04:59:09.231Z,9.03
2022-11-06T05:01:52.232Z,9.03
2022-11-06T05:04:32.931Z,8.92
2022-11-06T05:07:18.386Z,8.93
2022-11-06T05:10:05.541Z,9.02
2022-11-06T05:12:58.615Z,9.06
2022-11-06T05:15:45.064Z,9.09
2022-11-06T05:18:32.075Z,9.08
2022-11-06T05:21:28.679Z,9.03
2022-11-06T05:24:09.748Z,9.13
2022-11-06T05:27:01.270Z,9.23
2022-11-06T05:29:43.094Z,9.17
2022-11-06T05:32:31.584Z,9.25
2022-11-06T05:35:18.221Z,9.24
2022-11-06T05:38:12.875Z,9.30
2022-11-06T05:40:54.964Z,9.33
2022-11-06T05:43:38.541Z,9.25
2022-11-06T05:46:47.543Z,9.27
2022-11-06T05:49:37.084Z,9.30
2022-11-06T05:52:22.511Z,9.35
2022-11-06T05:55:13.182Z,9.37
2022-11-06T05:57:56.230Z,9.36
2022-11-06T06:00:43.066Z,9.35
2022-11-06T06:03:32.249Z,9.20
2022-11-06T06:06:16.081Z,9.29
2022-11-06T06:09:01.914Z,9.26
2022-11-06T06:11:46.394Z,9.23
2022-11-06T06:14:33.754Z,9.17
2022-11-06T06:17:16.862Z,9.30
2022-11-06T06:20:04.302Z,9.26
2022-11-06T06:22:44.987Z,9.29
2022-11-06T06:25:28.838Z,9.29
2022-11-06T06:28:21.177Z,9.29
2022-11-06T06:31:01.811Z,9.22
2022-11-06T06:33:46.917Z,9.33
2022-11-06T06:36:27.570Z,9.31
2022-11-06T06:39:16.495Z,9.36
2022-11-06T06:42:10.355Z,9.30
2022-11-06T06:44:51.006Z,9.38
2022-11-06T06:47:38.393Z,9.40
2022-11-06T06:50:22.546Z,9.37
2022-11-06T06:53:19.723Z,9.27
2022-11-06T06:55:59.049Z,9.24
2022-11-06T06:58:50.610Z,9.28
2022-11-06T07:01:39.120Z,9.30
2022-11-06T07:04:20.428Z,9.25
2022-11-06T07:07:01.205Z,9.39
2022-11-06T07:09:46.081Z,9.40
2022-11-06T07:12:24.061Z,9.50
2022-11-06T07:15:08.624Z,9.45
2022-11-06T07:17:56.432Z,9.32
2022-11-06T07:20:54.496Z,9.49
2022-11-06T07:23:34.897Z,9.50
2022-11-06T07:26:24.255Z,9.34
2022-11-06T07:29:10.514Z,9.42
2022-11-06T07:31:59.408Z,9.32
2022-11-06T07:34:50.467Z,9.39
2022-11-06T07:37:39.442Z,9.49
2022-11-06T07:40:25.414Z,9.57
2022-11-06T07:43:15.104Z,9.59
2022-11-06T07:45:50.236Z,9.52
2022-11-06T07:48:28.514Z,9.49
2022-11-06T07:51:23.101Z,9.50
2022-11-06T07:54:03.902Z,9.62
2022-11-06T07:56:58.976Z,9.57
2022-11-06T07:59:43.114Z,9.65
2022-11-06T08:02:26.129Z,9.69
2022-11-06T08:05:17.473Z,9.50
2022-11-06T08:07:59.155Z,9.56
2022-11-06T08:10:47.697Z,9.51
2022-11-06T08:13:39.817Z,9.49
2022-11-06T08:16:27.477Z,9.52
2022-11-06T08:19:05.125Z,9.50
2022-11-06T08:21:51.632Z,9.60
2022-11-06T08:24:41.541Z,9.64
2022-11-06T08:27:34.052Z,9.59
2022-11-06T08:30:20.608Z,9.66
2022-11-06T08:33:10.445Z,9.68
2022-11-06T08:35:57.079Z,9.46
2022-11-06T08:38:38.819Z,9.44
2022-11-06T08:41:18.524Z,9.61
2022-11-06T08:44:11.076Z,9.76
2022-11-06T08:46:59.541Z,9.81
2022-11-06T08:49:50.667Z,9.87
2022-11-06T08:52:33.895Z,9.85
2022-11-06T08:55:28.792Z,9.95
2022-11-06T08:58:14.575Z,10.08
2022-11-06T09:00:55.632Z,10.13
2022-11-06T09:03:40.441Z,10.10
2022-11-06T09:06:22.128Z,10.07
2022-11-06T09:09:10.548Z,10.21
2022-11-06T09:11:58.045Z,10.19
2022-11-06T09:14:39.035Z,10.19
2022-11-06T09:17:24.095Z,10.22
2022-11-06T09:20:01.689Z,10.14
2022-11-06T09:22:42.030Z,10.20
2022-11-06T09:25:25.343Z,10.10
2022-11-06T09:28:18.222Z,10.31
2022-11-06T09:31:10.604Z,10.33
2022-11-06T09:34:03.275Z,10.40
2022-11-06T09:36:51.792Z,10.40
2022-11-06T09:39:38.941Z,10.47
2022-11-06T09:42:32.061Z,10.70
2022-11-06T09:45:30.287Z,10.83
2022-11-06T09:48:26.456Z,10.93
2022-11-06T09:51:15.047Z,11.09
2022-11-06T09:54:10.933Z,11.24
2022-11-06T09:56:58.007Z,11.17
2022-11-06T09:59:47.577Z,11.01
2022-11-06T10:02:52.552Z,11.20
2022-11-06T10:05:48.289Z,11.50
2022-11-06T10:08:36.695Z,11.50
2022-11-06T10:11:18.478Z,11.61
2022-11-06T10:14:29.030Z,11.71
2022-11-06T10:17:17.767Z,11.81
2022-11-06T10:20:14.626Z,11.93
2022-11-06T10:23:15.302Z,11.71
2022-11-06T10:26:42.541Z,12.04
2022-11-06T10:29:45.517Z,12.03
2022-11-06T10:32:47.052Z,12.04
2022-11-06T10:35:47.770Z,12.05
2022-11-06T10:38:34.184Z,11.95
2022-11-06T10:41:33.341Z,11.72
2022-11-06T10:44:27.306Z,11.45
2022-11-06T10:47:08.583Z,11.57
2022-11-06T10:50:06.000Z,11.63
2022-11-06T10:53:25.435Z,11.64
2022-11-06T10:56:54.975Z,11.90
2022-11-06T10:59:40.963Z,11.91
2022-11-06T11:02:46.175Z,11.79
2022-11-06T11:05:46.124Z,12.02
2022-11-06T11:08:33.587Z,11.90
2022-11-06T11:11:51.783Z,12.06
2022-11-06T11:14:36.891Z,12.08
2022-11-06T11:17:24.758Z,12.01
2022-11-06T11:20:11.150Z,11.98
2022-11-06T11:22:52.174Z,12.02
2022-11-06T11:25:37.076Z,12.20
2022-11-06T11:28:42.759Z,12.11
2022-11-06T11:31:33.787Z,12.01
2022-11-06T11:34:22.033Z,12.12
2022-11-06T11:37:11.263Z,12.25
2022-11-06T11:39:59.500Z,12.19
2022-11-06T11:42:42.440Z,12.19
2022-11-06T11:45:25.450Z,12.18
2022-11-06T11:48:22.448Z,12.43
2022-11-06T11:51:33.999Z,12.48
2022-11-06T11:54:26.940Z,12.44
2022-11-06T11:57:12.008Z,12.60
2022-11-06T12:00:00.600Z,12.28
2022-11-06T12:03:13.105Z,12.37
2022-11-06T12:05:57.207Z,12.51
2022-11-06T12:08:41.589Z,12.42
2022-11-06T12:11:36.354Z,12.57
2022-11-06T12:14:40.962Z,12.56
2022-11-06T12:17:25.310Z,12.64
2022-11-06T12:20:12.446Z,12.68
2022-11-06T12:22:56.009Z,12.40
2022-11-06T12:25:45.082Z,12.29
2022-11-06T12:28:31.049Z,12.23
2022-11-06T12:31:45.092Z,12.35
2022-11-06T12:34:48.923Z,12.21
2022-11-06T12:37:40.685Z,12.38
2022-11-06T12:40:44.922Z,12.55
2022-11-06T12:43:33.059Z,12.51
2022-11-06T12:46:37.931Z,12.48
2022-11-06T12:49:46.372Z,12.50
2022-11-06T12:53:06.578Z,12.54
2022-11-06T12:56:10.507Z,12.51
2022-11-06T12:59:22.232Z,12.29
2022-11-06T13:02:16.179Z,12.50
2022-11-06T13:05:21.297Z,12.52
2022-11-06T13:08:17.647Z,12.48
2022-11-06T13:11:00.874Z,12.45
2022-11-06T13:13:53.068Z,12.24
2022-11-06T13:16:53.907Z,12.26
2022-11-06T13:19:55.345Z,11.93
2022-11-06T13:23:08.130Z,12.26
2022-11-06T13:26:15.404Z,12.47
2022-11-06T13:29:07.656Z,12.36
2022-11-06T13:31:57.828Z,12.22
2022-11-06T13:34:59.134Z,12.31
2022-11-06T13:38:01.145Z,12.40
2022-11-06T13:40:48.472Z,12.38
2022-11-06T13:43:37.694Z,12.30
2022-11-06T13:46:38.798Z,12.41
2022-11-06T13:49:57.654Z,12.48
2022-11-06T13:52:54.308Z,12.40
2022-11-06T13:56:16.871Z,12.45
2022-11-06T13:59:34.852Z,12.40
2022-11-06T14:02:54.131Z,12.44
2022-11-06T14:06:02.066Z,12.35
2022-11-06T14:09:22.365Z,12.41
2022-11-06T14:12:14.813Z,12.32
2022-11-06T14:15:11.636Z,12.30
2022-11-06T14:18:09.952Z,12.27
2022-11-06T14:21:27.356Z,12.02
2022-11-06T14:24:47.095Z,12.03
2022-11-06T14:27:45.424Z,12.03
2022-11-06T14:34:07.758Z,11.93
2022-11-06T14:37:08.786Z,11.93
2022-11-06T14:43:24.070Z,11.90
2022-11-06T14:46:23.742Z,11.88
2022-11-06T14:49:13.218Z,11.81
2022-11-06T14:52:22.295Z,11.67
2022-11-06T14:55:34.007Z,11.41
2022-11-06T14:58:46.847Z,11.37
2022-11-06T15:01:57.560Z,11.40
2022-11-06T15:04:53.968Z,11.49
2022-11-06T15:08:13.008Z,11.33
2022-11-06T15:11:01.095Z,11.24
2022-11-06T15:13:53.187Z,11.10
2022-11-06T15:16:49.784Z,11.05
2022-11-06T15:19:40.716Z,11.05
2022-11-06T15:23:04.097Z,11.11
2022-11-06T15:26:17.009Z,11.12
2022-11-06T15:29:15.186Z,11.11
2022-11-06T15:31:57.559Z,11.12
2022-11-06T15:35:01.984Z,11.12
2022-11-06T15:37:56.103Z,11.17
2022-11-06T15:40:43.005Z,11.15
2022-11-06T15:43:41.725Z,11.13
2022-11-06T15:46:37.411Z,11.10
2022-11-06T15:49:35.010Z,11.12
2022-11-06T15:52:41.970Z,11.04
2022-11-06T15:55:49.980Z,11.03
2022-11-06T15:58:46.058Z,11.05
2022-11-06T16:01:50.305Z,11.02
2022-11-06T16:07:38.044Z,10.76
2022-11-06T16:10:41.521Z,10.54
2022-11-06T16:13:34.350Z,10.47
2022-11-06T16:16:53.960Z,10.36
2022-11-06T16:19:51.558Z,10.21
2022-11-06T16:22:47.570Z,10.11
2022-11-06T16:25:29.052Z,9.96
2022-11-06T16:28:28.095Z,9.89
2022-11-06T16:31:24.869Z,9.81
2022-11-06T16:34:51.847Z,9.68
2022-11-06T16:37:35.960Z,9.58
2022-11-06T16:40:50.372Z,9.47
2022-11-06T16:43:49.311Z,9.39
2022-11-06T16:46:47.051Z,9.37
2022-11-06T16:49:57.583Z,9.26
2022-11-06T16:52:43.363Z,9.18
2022-11-06T16:55:34.425Z,9.08
2022-11-06T16:58:34.326Z,9.03
2022-11-06T17:01:21.218Z,9.04
2022-11-06T17:04:05.308Z,8.94
2022-11-06T17:06:51.122Z,8.80
2022-11-06T17:09:45.501Z,8.67
2022-11-06T17:12:45.992Z,8.54
2022-11-06T17:15:38.343Z,8.43
2022-11-06T17:18:23.962Z,8.44
2022-11-06T17:21:11.564Z,8.44
2022-11-06T17:23:48.896Z,8.47
2022-11-06T17:26:53.805Z,8.41
2022-11-06T17:29:36.758Z,8.35
2022-11-06T17:32:20.459Z,8.39
2022-11-06T17:35:10.086Z,8.38
2022-11-06T17:37:59.110Z,8.29
2022-11-06T17:40:53.553Z,8.26
2022-11-06T17:43:46.586Z,8.19
2022-11-06T17:46:37.445Z,8.17
2022-11-06T17:49:28.011Z,8.11
2022-11-06T17:52:17.890Z,8.11
2022-11-06T17:55:06.809Z,8.11
2022-11-06T17:57:53.446Z,8.11
2022-11-06T18:00:43.041Z,8.19
2022-11-06T18:03:49.336Z,8.18
2022-11-06T18:06:34.729Z,8.12
2022-11-06T18:09:33.653Z,8.11
2022-11-06T18:12:17.710Z,7.96
2022-11-06T18:15:09.088Z,7.98
2022-11-06T18:18:00.780Z,8.01
2022-11-06T18:21:07.422Z,7.96
2022-11-06T18:24:00.318Z,8.00
2022-11-06T18:26:49.430Z,8.10
2022-11-06T18:29:49.780Z,8.10
2022-11-06T18:32:43.860Z,8.12
2022-11-06T18:35:37.727Z,8.19
2022-11-06T18:38:19.560Z,8.22
2022-11-06T18:41:17.535Z,8.28
2022-11-06T18:44:08.371Z,8.29
2022-11-06T18:46:56.074Z,8.27
2022-11-06T18:49:43.349Z,8.25
2022-11-06T18:52:55.854Z,8.29
2022-11-06T18:56:00.274Z,8.26
2022-11-06T18:58:49.083Z,8.23
2022-11-06T19:01:38.131Z,8.23
2022-11-06T19:04:26.179Z,8.20
2022-11-06T19:07:10.192Z,8.15
2022-11-06T19:10:05.179Z,8.03
2022-11-06T19:13:00.400Z,8.01
2022-11-06T19:18:43.043Z,7.96
2022-11-06T19:21:46.121Z,7.92
2022-11-06T19:24:47.517Z,7.86
2022-11-06T19:27:33.502Z,7.83
2022-11-06T19:30:20.201Z,7.85
2022-11-06T19:33:09.246Z,7.76
2022-11-06T19:35:57.390Z,7.82
2022-11-06T19:38:44.320Z,7.88
2022-11-06T19:41:32.921Z,7.91
2022-11-06T19:44:14.144Z,7.92
2022-11-06T19:47:02.222Z,7.98
2022-11-06T19:49:49.062Z,7.98
2022-11-06T19:52:41.452Z,8.00
2022-11-06T19:55:27.918Z,7.98
2022-11-06T19:58:27.103Z,7.96
2022-11-06T20:01:24.042Z,7.94
2022-11-06T20:04:08.095Z,7.90
2022-11-06T20:07:05.981Z,7.88
2022-11-06T20:09:50.114Z,7.81
2022-11-06T20:12:40.090Z,7.71
2022-11-06T20:15:29.175Z,7.70
2022-11-06T20:18:13.785Z,7.68
2022-11-06T20:20:54.788Z,7.57
2022-11-06T20:23:38.979Z,7.53
2022-11-06T20:26:19.600Z,7.53
2022-11-06T20:29:04.060Z,7.47
2022-11-06T20:31:49.356Z,7.42
2022-11-06T20:34:35.592Z,7.36
2022-11-06T20:37:25.704Z,7.27
2022-11-06T20:40:08.991Z,7.21
2022-11-06T20:42:57.055Z,7.12
2022-11-06T20:45:50.749Z,7.08
2022-11-06T20:48:30.774Z,7.02
2022-11-06T20:51:48.328Z,6.98
2022-11-06T20:54:43.700Z,6.89
2022-11-06T20:57:33.063Z,6.84
2022-11-06T21:00:13.017Z,6.82
2022-11-06T21:02:54.290Z,6.78
2022-11-06T21:05:43.050Z,6.68
2022-11-06T21:08:30.782Z,6.60
2022-11-06T21:11:18.310Z,6.47
2022-11-06T21:14:18.345Z,6.52
2022-11-06T21:16:56.577Z,6.57
2022-11-06T21:19:45.809Z,6.49
2022-11-06T21:22:35.063Z,6.60
2022-11-06T21:25:19.041Z,6.55
2022-11-06T21:28:05.517Z,6.58
2022-11-06T21:30:57.789Z,6.56
2022-11-06T21:33:40.138Z,6.60
2022-11-06T21:36:25.960Z,6.63
2022-11-06T21:39:19.559Z,6.60
2022-11-06T21:42:05.804Z,6.60
2022-11-06T21:44:54.020Z,6.59
2022-11-06T21:47:45.726Z,6.56
2022-11-06T21:50:31.036Z,6.56
2022-11-06T21:53:29.013Z,6.47
2022-11-06T21:56:19.995Z,6.29
2022-11-06T21:59:04.725Z,6.29
2022-11-06T22:01:51.491Z,6.25
2022-11-06T22:04:36.052Z,6.19
2022-11-06T22:07:18.514Z,6.18
2022-11-06T22:10:05.343Z,6.13
2022-11-06T22:12:45.484Z,6.07
2022-11-06T22:15:35.069Z,5.99
2022-11-06T22:18:14.572Z,5.93
2022-11-06T22:20:54.156Z,5.93
2022-11-06T22:23:38.506Z,5.89
2022-11-06T22:26:17.061Z,5.78
2022-11-06T22:29:12.000Z,5.78
2022-11-06T22:31:52.447Z,5.74
2022-11-06T22:34:32.996Z,5.81
2022-11-06T22:37:16.514Z,5.82
2022-11-06T22:40:06.147Z,5.79
2022-11-06T22:42:52.037Z,5.77
2022-11-06T22:45:34.052Z,5.72
2022-11-06T22:48:25.949Z,5.70
2022-11-06T22:51:15.333Z,5.68
2022-11-06T22:53:54.247Z,5.65
2022-11-06T22:56:37.020Z,5.64
2022-11-06T22:59:22.047Z,5.66
2022-11-06T23:02:10.880Z,5.63
2022-11-06T23:05:02.793Z,5.61
2022-11-06T23:07:47.602Z,5.69
2022-11-06T23:10:36.159Z,5.64
2022-11-06T23:13:16.251Z,5.67
2022-11-06T23:16:13.239Z,5.69
2022-11-06T23:18:53.412Z,5.73
2022-11-06T23:21:33.571Z,5.72
2022-11-06T23:24:14.522Z,5.73
2022-11-06T23:27:00.867Z,5.76
2022-11-06T23:29:39.994Z,5.85
2022-11-06T23:32:28.927Z,5.92
2022-11-06T23:35:11.655Z,5.95
2022-11-06T23:38:02.253Z,5.98
2022-11-06T23:40:43.190Z,5.98
2022-11-06T23:43:54.917Z,6.02
2022-11-06T23:46:42.144Z,6.04
2022-11-06T23:49:36.391Z,6.07
2022-11-06T23:52:22.124Z,6.04
2022-11-06T23:55:08.410Z,6.08
2022-11-06T23:57:54.917Z,6.09
